sensor_id;sensor_type;location;lat;lon;timestamp;temperature;humidity
49829;DHT22;35723;51.194;5.112;2022-09-09T00:00:41;16.60;99.90
49829;DHT22;35723;51.194;5.112;2022-09-09T00:03:25;16.60;99.90
49829;DHT22;35723;51.194;5.112;2022-09-09T00:06:07;16.60;99.90
49829;DHT22;35723;51.194;5.112;2022-09-09T00:11:49;16.80;99.90
49829;DHT22;35723;51.194;5.112;2022-09-09T00:17:04;16.70;99.90
49829;DHT22;35723;51.194;5.112;2022-09-09T00:20:05;16.60;99.90
49829;DHT22;35723;51.194;5.112;2022-09-09T00:22:36;16.50;99.90
49829;DHT22;35723;51.194;5.112;2022-09-09T00:25:27;16.60;99.90
49829;DHT22;35723;51.194;5.112;2022-09-09T00:27:56;16.70;99.90
49829;DHT22;35723;51.194;5.112;2022-09-09T00:30:24;16.80;99.90
49829;DHT22;35723;51.194;5.112;2022-09-09T00:33:10;16.50;99.90
49829;DHT22;35723;51.194;5.112;2022-09-09T00:35:45;16.50;99.90
49829;DHT22;35723;51.194;5.112;2022-09-09T00:47:40;16.60;99.90
49829;DHT22;35723;51.194;5.112;2022-09-09T00:50:35;16.70;99.90
49829;DHT22;35723;51.194;5.112;2022-09-09T00:55:48;16.90;99.90
49829;DHT22;35723;51.194;5.112;2022-09-09T00:58:16;16.80;99.90
49829;DHT22;35723;51.194;5.112;2022-09-09T01:00:44;16.80;99.90
49829;DHT22;35723;51.194;5.112;2022-09-09T01:09:13;16.60;99.90
49829;DHT22;35723;51.194;5.112;2022-09-09T01:12:01;16.70;99.90
49829;DHT22;35723;51.194;5.112;2022-09-09T01:14:40;16.60;99.90
49829;DHT22;35723;51.194;5.112;2022-09-09T01:17:26;16.50;99.90
49829;DHT22;35723;51.194;5.112;2022-09-09T01:28:47;16.50;99.90
49829;DHT22;35723;51.194;5.112;2022-09-09T01:31:21;16.50;99.90
49829;DHT22;35723;51.194;5.112;2022-09-09T01:33:48;16.60;99.90
49829;DHT22;35723;51.194;5.112;2022-09-09T01:36:41;16.60;99.90
49829;DHT22;35723;51.194;5.112;2022-09-09T01:39:04;16.50;99.90
49829;DHT22;35723;51.194;5.112;2022-09-09T01:41:29;16.40;99.90
49829;DHT22;35723;51.194;5.112;2022-09-09T01:43:55;16.50;99.90
49829;DHT22;35723;51.194;5.112;2022-09-09T01:46:22;16.60;99.90
49829;DHT22;35723;51.194;5.112;2022-09-09T01:48:50;16.50;99.90
49829;DHT22;35723;51.194;5.112;2022-09-09T01:51:17;16.50;99.90
49829;DHT22;35723;51.194;5.112;2022-09-09T01:53:43;16.30;99.90
49829;DHT22;35723;51.194;5.112;2022-09-09T02:06:54;16.50;99.90
49829;DHT22;35723;51.194;5.112;2022-09-09T02:09:23;16.50;99.90
49829;DHT22;35723;51.194;5.112;2022-09-09T02:11:57;16.50;99.90
49829;DHT22;35723;51.194;5.112;2022-09-09T02:14:30;16.40;99.90
49829;DHT22;35723;51.194;5.112;2022-09-09T02:17:07;16.40;99.90
49829;DHT22;35723;51.194;5.112;2022-09-09T02:19:39;16.40;99.90
49829;DHT22;35723;51.194;5.112;2022-09-09T02:22:07;16.30;99.90
49829;DHT22;35723;51.194;5.112;2022-09-09T02:24:37;16.30;99.90
49829;DHT22;35723;51.194;5.112;2022-09-09T02:27:05;16.40;99.90
49829;DHT22;35723;51.194;5.112;2022-09-09T02:29:42;16.30;99.90
49829;DHT22;35723;51.194;5.112;2022-09-09T02:32:16;16.30;99.90
49829;DHT22;35723;51.194;5.112;2022-09-09T02:34:47;16.40;99.90
49829;DHT22;35723;51.194;5.112;2022-09-09T02:37:18;16.40;99.90
49829;DHT22;35723;51.194;5.112;2022-09-09T02:39:45;16.50;99.90
49829;DHT22;35723;51.194;5.112;2022-09-09T02:42:12;16.50;99.90
49829;DHT22;35723;51.194;5.112;2022-09-09T02:44:40;16.50;99.90
49829;DHT22;35723;51.194;5.112;2022-09-09T02:47:25;16.40;99.90
49829;DHT22;35723;51.194;5.112;2022-09-09T02:50:08;16.40;99.90
49829;DHT22;35723;51.194;5.112;2022-09-09T02:55:34;16.30;99.90
49829;DHT22;35723;51.194;5.112;2022-09-09T02:58:05;16.40;99.90
49829;DHT22;35723;51.194;5.112;2022-09-09T03:00:32;16.30;99.90
49829;DHT22;35723;51.194;5.112;2022-09-09T03:02:58;16.20;99.90
49829;DHT22;35723;51.194;5.112;2022-09-09T03:05:24;16.20;99.90
49829;DHT22;35723;51.194;5.112;2022-09-09T03:07:49;16.10;99.90
49829;DHT22;35723;51.194;5.112;2022-09-09T03:10:16;16.20;99.90
49829;DHT22;35723;51.194;5.112;2022-09-09T03:12:42;16.30;99.90
49829;DHT22;35723;51.194;5.112;2022-09-09T03:15:09;16.40;99.90
49829;DHT22;35723;51.194;5.112;2022-09-09T03:17:35;16.40;99.90
49829;DHT22;35723;51.194;5.112;2022-09-09T03:20:03;16.50;99.90
49829;DHT22;35723;51.194;5.112;2022-09-09T03:22:29;16.40;99.90
49829;DHT22;35723;51.194;5.112;2022-09-09T03:24:54;16.40;99.90
49829;DHT22;35723;51.194;5.112;2022-09-09T03:27:20;16.40;99.90
49829;DHT22;35723;51.194;5.112;2022-09-09T03:29:46;16.30;99.90
49829;DHT22;35723;51.194;5.112;2022-09-09T03:32:13;16.40;99.90
49829;DHT22;35723;51.194;5.112;2022-09-09T03:34:38;16.40;99.90
49829;DHT22;35723;51.194;5.112;2022-09-09T03:37:07;16.40;99.90
49829;DHT22;35723;51.194;5.112;2022-09-09T03:39:33;16.40;99.90
49829;DHT22;35723;51.194;5.112;2022-09-09T03:41:58;16.40;99.90
49829;DHT22;35723;51.194;5.112;2022-09-09T03:44:24;16.30;99.90
49829;DHT22;35723;51.194;5.112;2022-09-09T03:46:50;16.30;99.90
49829;DHT22;35723;51.194;5.112;2022-09-09T03:49:15;16.20;99.90
49829;DHT22;35723;51.194;5.112;2022-09-09T03:51:42;16.20;99.90
49829;DHT22;35723;51.194;5.112;2022-09-09T03:54:08;16.30;99.90
49829;DHT22;35723;51.194;5.112;2022-09-09T03:56:35;16.20;99.90
49829;DHT22;35723;51.194;5.112;2022-09-09T03:59:01;16.40;99.90
49829;DHT22;35723;51.194;5.112;2022-09-09T04:01:28;16.40;99.90
49829;DHT22;35723;51.194;5.112;2022-09-09T04:03:53;16.40;99.90
49829;DHT22;35723;51.194;5.112;2022-09-09T04:06:23;16.40;99.90
49829;DHT22;35723;51.194;5.112;2022-09-09T04:08:49;16.50;99.90
49829;DHT22;35723;51.194;5.112;2022-09-09T04:11:17;16.40;99.90
49829;DHT22;35723;51.194;5.112;2022-09-09T04:13:43;16.30;99.90
49829;DHT22;35723;51.194;5.112;2022-09-09T04:16:10;16.40;99.90
49829;DHT22;35723;51.194;5.112;2022-09-09T04:18:36;16.30;99.90
49829;DHT22;35723;51.194;5.112;2022-09-09T04:21:02;16.30;99.90
49829;DHT22;35723;51.194;5.112;2022-09-09T04:23:29;16.30;99.90
49829;DHT22;35723;51.194;5.112;2022-09-09T04:25:56;16.20;99.90
49829;DHT22;35723;51.194;5.112;2022-09-09T04:28:24;16.20;99.90
49829;DHT22;35723;51.194;5.112;2022-09-09T04:30:51;16.40;99.90
49829;DHT22;35723;51.194;5.112;2022-09-09T04:33:18;16.60;99.90
49829;DHT22;35723;51.194;5.112;2022-09-09T04:35:45;16.50;99.90
49829;DHT22;35723;51.194;5.112;2022-09-09T04:38:12;16.50;99.90
49829;DHT22;35723;51.194;5.112;2022-09-09T04:40:38;16.40;99.90
49829;DHT22;35723;51.194;5.112;2022-09-09T04:43:08;16.30;99.90
49829;DHT22;35723;51.194;5.112;2022-09-09T04:45:34;16.40;99.90
49829;DHT22;35723;51.194;5.112;2022-09-09T04:48:00;16.40;99.90
49829;DHT22;35723;51.194;5.112;2022-09-09T04:50:25;16.50;99.90
49829;DHT22;35723;51.194;5.112;2022-09-09T04:52:51;16.50;99.90
49829;DHT22;35723;51.194;5.112;2022-09-09T04:55:17;16.50;99.90
49829;DHT22;35723;51.194;5.112;2022-09-09T04:57:42;16.40;99.90
49829;DHT22;35723;51.194;5.112;2022-09-09T05:00:09;16.20;99.90
49829;DHT22;35723;51.194;5.112;2022-09-09T05:02:39;16.30;99.90
49829;DHT22;35723;51.194;5.112;2022-09-09T05:05:05;16.30;99.90
49829;DHT22;35723;51.194;5.112;2022-09-09T05:07:32;16.20;99.90
49829;DHT22;35723;51.194;5.112;2022-09-09T05:09:58;16.10;99.90
49829;DHT22;35723;51.194;5.112;2022-09-09T05:12:24;16.20;99.90
49829;DHT22;35723;51.194;5.112;2022-09-09T05:14:51;16.20;99.90
49829;DHT22;35723;51.194;5.112;2022-09-09T05:17:17;16.20;99.90
49829;DHT22;35723;51.194;5.112;2022-09-09T05:19:43;16.20;99.90
49829;DHT22;35723;51.194;5.112;2022-09-09T05:22:09;16.20;99.90
49829;DHT22;35723;51.194;5.112;2022-09-09T05:24:36;16.20;99.90
49829;DHT22;35723;51.194;5.112;2022-09-09T05:27:02;16.20;99.90
49829;DHT22;35723;51.194;5.112;2022-09-09T05:29:28;16.10;99.90
49829;DHT22;35723;51.194;5.112;2022-09-09T05:31:53;16.10;99.90
49829;DHT22;35723;51.194;5.112;2022-09-09T05:34:19;16.20;99.90
49829;DHT22;35723;51.194;5.112;2022-09-09T05:36:47;16.30;99.90
49829;DHT22;35723;51.194;5.112;2022-09-09T05:39:12;16.30;99.90
49829;DHT22;35723;51.194;5.112;2022-09-09T05:41:38;16.10;99.90
49829;DHT22;35723;51.194;5.112;2022-09-09T05:44:04;16.10;99.90
49829;DHT22;35723;51.194;5.112;2022-09-09T05:46:30;16.10;99.90
49829;DHT22;35723;51.194;5.112;2022-09-09T05:48:56;16.20;99.90
49829;DHT22;35723;51.194;5.112;2022-09-09T05:51:23;16.20;99.90
49829;DHT22;35723;51.194;5.112;2022-09-09T05:53:49;16.40;99.90
49829;DHT22;35723;51.194;5.112;2022-09-09T05:56:21;16.30;99.90
49829;DHT22;35723;51.194;5.112;2022-09-09T05:58:49;16.30;99.90
49829;DHT22;35723;51.194;5.112;2022-09-09T06:03:52;16.50;99.90
49829;DHT22;35723;51.194;5.112;2022-09-09T06:06:20;16.40;99.90
49829;DHT22;35723;51.194;5.112;2022-09-09T06:08:47;16.40;99.90
49829;DHT22;35723;51.194;5.112;2022-09-09T06:11:18;16.20;99.90
49829;DHT22;35723;51.194;5.112;2022-09-09T06:13:44;16.20;99.90
49829;DHT22;35723;51.194;5.112;2022-09-09T06:16:12;16.20;99.90
49829;DHT22;35723;51.194;5.112;2022-09-09T06:18:39;16.30;99.90
49829;DHT22;35723;51.194;5.112;2022-09-09T06:21:11;16.40;99.90
49829;DHT22;35723;51.194;5.112;2022-09-09T06:23:39;16.30;99.90
49829;DHT22;35723;51.194;5.112;2022-09-09T06:28:38;16.30;99.90
49829;DHT22;35723;51.194;5.112;2022-09-09T06:31:09;16.40;99.90
49829;DHT22;35723;51.194;5.112;2022-09-09T06:33:36;16.60;99.90
49829;DHT22;35723;51.194;5.112;2022-09-09T06:36:11;16.50;99.90
49829;DHT22;35723;51.194;5.112;2022-09-09T06:38:37;16.50;99.90
49829;DHT22;35723;51.194;5.112;2022-09-09T06:41:03;16.70;99.90
49829;DHT22;35723;51.194;5.112;2022-09-09T06:43:29;16.90;99.90
49829;DHT22;35723;51.194;5.112;2022-09-09T06:45:58;17.00;99.90
49829;DHT22;35723;51.194;5.112;2022-09-09T06:48:25;17.00;99.90
49829;DHT22;35723;51.194;5.112;2022-09-09T06:51:04;16.90;99.90
49829;DHT22;35723;51.194;5.112;2022-09-09T06:53:29;16.90;99.90
49829;DHT22;35723;51.194;5.112;2022-09-09T06:55:55;16.90;99.90
49829;DHT22;35723;51.194;5.112;2022-09-09T06:58:21;17.00;99.90
49829;DHT22;35723;51.194;5.112;2022-09-09T07:00:49;17.00;99.90
49829;DHT22;35723;51.194;5.112;2022-09-09T07:03:15;16.90;99.90
49829;DHT22;35723;51.194;5.112;2022-09-09T07:05:41;17.00;99.90
49829;DHT22;35723;51.194;5.112;2022-09-09T07:08:06;17.00;99.90
49829;DHT22;35723;51.194;5.112;2022-09-09T07:10:32;16.90;99.90
49829;DHT22;35723;51.194;5.112;2022-09-09T07:12:59;16.90;99.90
49829;DHT22;35723;51.194;5.112;2022-09-09T07:15:25;16.90;99.90
49829;DHT22;35723;51.194;5.112;2022-09-09T07:17:51;17.10;99.90
49829;DHT22;35723;51.194;5.112;2022-09-09T07:20:18;17.20;99.90
49829;DHT22;35723;51.194;5.112;2022-09-09T07:22:45;17.10;99.90
49829;DHT22;35723;51.194;5.112;2022-09-09T07:25:11;17.20;99.90
49829;DHT22;35723;51.194;5.112;2022-09-09T07:27:36;17.20;99.90
49829;DHT22;35723;51.194;5.112;2022-09-09T07:30:02;17.20;99.90
49829;DHT22;35723;51.194;5.112;2022-09-09T07:32:29;17.10;99.90
49829;DHT22;35723;51.194;5.112;2022-09-09T07:34:55;17.10;99.90
49829;DHT22;35723;51.194;5.112;2022-09-09T07:37:23;17.10;99.90
49829;DHT22;35723;51.194;5.112;2022-09-09T07:39:49;17.20;99.90
49829;DHT22;35723;51.194;5.112;2022-09-09T07:42:16;17.30;99.90
49829;DHT22;35723;51.194;5.112;2022-09-09T07:44:41;17.50;99.90
49829;DHT22;35723;51.194;5.112;2022-09-09T07:47:07;17.50;99.90
49829;DHT22;35723;51.194;5.112;2022-09-09T07:49:33;17.60;99.90
49829;DHT22;35723;51.194;5.112;2022-09-09T07:51:59;17.70;99.90
49829;DHT22;35723;51.194;5.112;2022-09-09T07:54:25;17.70;99.90
49829;DHT22;35723;51.194;5.112;2022-09-09T07:56:52;17.60;99.90
49829;DHT22;35723;51.194;5.112;2022-09-09T07:59:18;17.70;99.90
49829;DHT22;35723;51.194;5.112;2022-09-09T08:01:51;17.60;99.90
49829;DHT22;35723;51.194;5.112;2022-09-09T08:04:21;17.60;99.90
49829;DHT22;35723;51.194;5.112;2022-09-09T08:06:58;17.70;99.90
49829;DHT22;35723;51.194;5.112;2022-09-09T08:09:24;17.70;99.90
49829;DHT22;35723;51.194;5.112;2022-09-09T08:11:52;17.80;99.90
49829;DHT22;35723;51.194;5.112;2022-09-09T08:14:18;17.70;99.90
49829;DHT22;35723;51.194;5.112;2022-09-09T08:16:47;17.70;99.90
49829;DHT22;35723;51.194;5.112;2022-09-09T08:19:13;17.60;99.90
49829;DHT22;35723;51.194;5.112;2022-09-09T08:21:41;17.70;99.90
49829;DHT22;35723;51.194;5.112;2022-09-09T08:24:08;17.70;99.90
49829;DHT22;35723;51.194;5.112;2022-09-09T08:26:41;17.80;99.90
49829;DHT22;35723;51.194;5.112;2022-09-09T08:29:08;17.60;99.90
49829;DHT22;35723;51.194;5.112;2022-09-09T08:31:38;17.70;99.90
49829;DHT22;35723;51.194;5.112;2022-09-09T08:34:05;17.70;99.90
49829;DHT22;35723;51.194;5.112;2022-09-09T08:36:34;17.70;99.90
49829;DHT22;35723;51.194;5.112;2022-09-09T08:39:00;17.60;99.90
49829;DHT22;35723;51.194;5.112;2022-09-09T08:52:30;17.70;99.90
49829;DHT22;35723;51.194;5.112;2022-09-09T08:55:03;17.90;99.90
49829;DHT22;35723;51.194;5.112;2022-09-09T08:57:31;17.80;99.90
49829;DHT22;35723;51.194;5.112;2022-09-09T08:59:58;17.90;99.90
49829;DHT22;35723;51.194;5.112;2022-09-09T09:12:52;17.90;99.90
49829;DHT22;35723;51.194;5.112;2022-09-09T09:15:23;17.90;99.90
49829;DHT22;35723;51.194;5.112;2022-09-09T09:17:49;17.90;99.90
49829;DHT22;35723;51.194;5.112;2022-09-09T09:20:16;18.00;99.90
49829;DHT22;35723;51.194;5.112;2022-09-09T09:22:50;18.10;99.90
49829;DHT22;35723;51.194;5.112;2022-09-09T09:25:21;18.00;99.90
49829;DHT22;35723;51.194;5.112;2022-09-09T09:28:16;17.90;99.90
49829;DHT22;35723;51.194;5.112;2022-09-09T09:33:58;18.00;99.90
49829;DHT22;35723;51.194;5.112;2022-09-09T09:36:24;17.90;99.90
49829;DHT22;35723;51.194;5.112;2022-09-09T09:39:01;17.80;99.90
49829;DHT22;35723;51.194;5.112;2022-09-09T09:41:53;17.80;99.90
49829;DHT22;35723;51.194;5.112;2022-09-09T09:44:31;17.90;99.90
49829;DHT22;35723;51.194;5.112;2022-09-09T09:47:21;17.80;99.90
49829;DHT22;35723;51.194;5.112;2022-09-09T09:50:00;17.80;99.90
49829;DHT22;35723;51.194;5.112;2022-09-09T09:52:31;17.60;99.90
49829;DHT22;35723;51.194;5.112;2022-09-09T09:55:03;17.60;99.90
49829;DHT22;35723;51.194;5.112;2022-09-09T09:57:31;17.60;99.90
49829;DHT22;35723;51.194;5.112;2022-09-09T10:00:16;17.60;99.90
49829;DHT22;35723;51.194;5.112;2022-09-09T10:02:44;17.60;99.90
49829;DHT22;35723;51.194;5.112;2022-09-09T10:05:14;17.60;99.90
49829;DHT22;35723;51.194;5.112;2022-09-09T10:07:41;17.40;99.90
49829;DHT22;35723;51.194;5.112;2022-09-09T10:10:15;17.30;99.90
49829;DHT22;35723;51.194;5.112;2022-09-09T10:13:03;17.30;99.90
49829;DHT22;35723;51.194;5.112;2022-09-09T10:15:59;17.40;99.90
49829;DHT22;35723;51.194;5.112;2022-09-09T10:24:02;17.70;99.90
49829;DHT22;35723;51.194;5.112;2022-09-09T10:37:31;17.20;99.90
49829;DHT22;35723;51.194;5.112;2022-09-09T10:40:46;17.30;99.90
49829;DHT22;35723;51.194;5.112;2022-09-09T10:42:46;17.40;99.90
49829;DHT22;35723;51.194;5.112;2022-09-09T10:45:27;17.50;99.90
49829;DHT22;35723;51.194;5.112;2022-09-09T10:48:25;17.60;99.90
49829;DHT22;35723;51.194;5.112;2022-09-09T10:51:16;17.60;99.90
49829;DHT22;35723;51.194;5.112;2022-09-09T10:57:11;17.60;99.90
49829;DHT22;35723;51.194;5.112;2022-09-09T10:59:45;17.40;99.90
49829;DHT22;35723;51.194;5.112;2022-09-09T11:02:16;17.50;99.90
49829;DHT22;35723;51.194;5.112;2022-09-09T11:04:58;17.40;99.90
49829;DHT22;35723;51.194;5.112;2022-09-09T11:07:56;17.50;99.90
49829;DHT22;35723;51.194;5.112;2022-09-09T11:13:19;17.70;99.90
49829;DHT22;35723;51.194;5.112;2022-09-09T11:15:53;17.60;99.90
49829;DHT22;35723;51.194;5.112;2022-09-09T11:18:21;17.60;99.90
49829;DHT22;35723;51.194;5.112;2022-09-09T11:20:51;17.60;99.90
49829;DHT22;35723;51.194;5.112;2022-09-09T11:23:27;17.60;99.90
49829;DHT22;35723;51.194;5.112;2022-09-09T11:26:00;17.60;99.90
49829;DHT22;35723;51.194;5.112;2022-09-09T11:42:18;18.00;99.90
49829;DHT22;35723;51.194;5.112;2022-09-09T11:44:44;18.10;99.90
49829;DHT22;35723;51.194;5.112;2022-09-09T11:47:30;18.20;99.90
49829;DHT22;35723;51.194;5.112;2022-09-09T11:50:10;18.30;99.90
49829;DHT22;35723;51.194;5.112;2022-09-09T11:52:42;18.20;99.90
49829;DHT22;35723;51.194;5.112;2022-09-09T11:55:28;18.30;99.90
49829;DHT22;35723;51.194;5.112;2022-09-09T12:00:39;18.40;99.90
49829;DHT22;35723;51.194;5.112;2022-09-09T12:06:08;18.50;99.90
49829;DHT22;35723;51.194;5.112;2022-09-09T12:08:35;18.40;99.90
49829;DHT22;35723;51.194;5.112;2022-09-09T12:11:02;18.50;99.90
49829;DHT22;35723;51.194;5.112;2022-09-09T12:13:30;18.60;99.90
49829;DHT22;35723;51.194;5.112;2022-09-09T12:15:58;18.80;99.90
49829;DHT22;35723;51.194;5.112;2022-09-09T12:18:31;18.80;99.90
49829;DHT22;35723;51.194;5.112;2022-09-09T12:23:55;18.80;99.90
49829;DHT22;35723;51.194;5.112;2022-09-09T12:26:32;18.80;99.90
49829;DHT22;35723;51.194;5.112;2022-09-09T12:34:44;19.10;99.90
49829;DHT22;35723;51.194;5.112;2022-09-09T12:39:58;19.60;99.90
49829;DHT22;35723;51.194;5.112;2022-09-09T12:42:26;19.70;99.90
49829;DHT22;35723;51.194;5.112;2022-09-09T12:47:44;19.80;99.90
49829;DHT22;35723;51.194;5.112;2022-09-09T12:50:32;19.80;99.90
49829;DHT22;35723;51.194;5.112;2022-09-09T12:53:01;19.70;99.90
49829;DHT22;35723;51.194;5.112;2022-09-09T12:55:31;19.80;99.90
49829;DHT22;35723;51.194;5.112;2022-09-09T12:57:59;19.80;99.90
49829;DHT22;35723;51.194;5.112;2022-09-09T13:00:26;19.80;99.90
49829;DHT22;35723;51.194;5.112;2022-09-09T13:02:57;19.80;99.90
49829;DHT22;35723;51.194;5.112;2022-09-09T13:05:34;20.00;99.90
49829;DHT22;35723;51.194;5.112;2022-09-09T13:08:11;20.40;99.90
49829;DHT22;35723;51.194;5.112;2022-09-09T13:10:52;20.30;99.90
49829;DHT22;35723;51.194;5.112;2022-09-09T13:13:27;20.20;99.90
49829;DHT22;35723;51.194;5.112;2022-09-09T13:16:00;20.10;99.90
49829;DHT22;35723;51.194;5.112;2022-09-09T13:18:31;20.00;99.90
49829;DHT22;35723;51.194;5.112;2022-09-09T13:20:57;20.10;99.90
49829;DHT22;35723;51.194;5.112;2022-09-09T13:23:36;20.20;99.90
49829;DHT22;35723;51.194;5.112;2022-09-09T13:26:22;20.30;99.90
49829;DHT22;35723;51.194;5.112;2022-09-09T13:28:48;20.10;99.90
49829;DHT22;35723;51.194;5.112;2022-09-09T13:31:32;20.20;99.90
49829;DHT22;35723;51.194;5.112;2022-09-09T13:33:58;20.20;99.90
49829;DHT22;35723;51.194;5.112;2022-09-09T13:36:31;20.20;99.90
49829;DHT22;35723;51.194;5.112;2022-09-09T13:38:59;20.10;99.90
49829;DHT22;35723;51.194;5.112;2022-09-09T13:41:32;20.30;99.90
49829;DHT22;35723;51.194;5.112;2022-09-09T13:43:59;20.40;99.90
49829;DHT22;35723;51.194;5.112;2022-09-09T13:49:22;20.40;99.90
49829;DHT22;35723;51.194;5.112;2022-09-09T13:51:50;20.50;99.90
49829;DHT22;35723;51.194;5.112;2022-09-09T13:54:20;20.50;99.90
49829;DHT22;35723;51.194;5.112;2022-09-09T13:56:48;20.50;99.90
49829;DHT22;35723;51.194;5.112;2022-09-09T13:59:19;20.50;99.90
49829;DHT22;35723;51.194;5.112;2022-09-09T14:01:49;20.60;99.90
49829;DHT22;35723;51.194;5.112;2022-09-09T14:04:17;20.50;99.90
49829;DHT22;35723;51.194;5.112;2022-09-09T14:06:43;20.60;99.90
49829;DHT22;35723;51.194;5.112;2022-09-09T14:09:14;20.50;99.90
49829;DHT22;35723;51.194;5.112;2022-09-09T14:11:40;20.60;99.90
49829;DHT22;35723;51.194;5.112;2022-09-09T14:14:06;20.70;99.90
49829;DHT22;35723;51.194;5.112;2022-09-09T14:16:32;20.70;99.90
49829;DHT22;35723;51.194;5.112;2022-09-09T14:18:58;20.80;99.90
49829;DHT22;35723;51.194;5.112;2022-09-09T14:21:25;20.80;99.90
49829;DHT22;35723;51.194;5.112;2022-09-09T14:23:51;20.70;99.90
49829;DHT22;35723;51.194;5.112;2022-09-09T14:26:18;20.70;99.90
49829;DHT22;35723;51.194;5.112;2022-09-09T14:28:45;20.60;99.90
49829;DHT22;35723;51.194;5.112;2022-09-09T14:31:11;20.70;99.90
49829;DHT22;35723;51.194;5.112;2022-09-09T14:33:38;20.80;99.90
49829;DHT22;35723;51.194;5.112;2022-09-09T14:36:04;20.90;99.90
49829;DHT22;35723;51.194;5.112;2022-09-09T14:38:36;21.10;99.90
49829;DHT22;35723;51.194;5.112;2022-09-09T14:41:12;21.00;99.90
49829;DHT22;35723;51.194;5.112;2022-09-09T14:43:42;20.90;99.90
49829;DHT22;35723;51.194;5.112;2022-09-09T14:46:16;20.80;99.90
49829;DHT22;35723;51.194;5.112;2022-09-09T14:48:42;20.50;99.90
49829;DHT22;35723;51.194;5.112;2022-09-09T14:51:11;20.50;99.90
49829;DHT22;35723;51.194;5.112;2022-09-09T14:53:38;20.50;99.90
49829;DHT22;35723;51.194;5.112;2022-09-09T14:56:31;20.50;99.90
49829;DHT22;35723;51.194;5.112;2022-09-09T14:58:58;20.60;99.90
49829;DHT22;35723;51.194;5.112;2022-09-09T15:01:26;20.80;99.90
49829;DHT22;35723;51.194;5.112;2022-09-09T15:06:24;20.80;99.90
49829;DHT22;35723;51.194;5.112;2022-09-09T15:08:51;20.80;99.90
49829;DHT22;35723;51.194;5.112;2022-09-09T15:11:18;20.80;99.90
49829;DHT22;35723;51.194;5.112;2022-09-09T15:13:44;20.70;99.90
49829;DHT22;35723;51.194;5.112;2022-09-09T15:16:14;20.70;99.90
49829;DHT22;35723;51.194;5.112;2022-09-09T15:18:41;20.80;99.90
49829;DHT22;35723;51.194;5.112;2022-09-09T15:21:12;21.00;99.90
49829;DHT22;35723;51.194;5.112;2022-09-09T15:23:38;20.90;99.90
49829;DHT22;35723;51.194;5.112;2022-09-09T15:26:11;20.90;99.90
49829;DHT22;35723;51.194;5.112;2022-09-09T15:28:37;20.90;99.90
49829;DHT22;35723;51.194;5.112;2022-09-09T15:31:27;20.90;99.90
49829;DHT22;35723;51.194;5.112;2022-09-09T15:33:54;20.90;99.90
49829;DHT22;35723;51.194;5.112;2022-09-09T15:36:47;21.00;99.90
49829;DHT22;35723;51.194;5.112;2022-09-09T15:39:16;21.00;99.90
49829;DHT22;35723;51.194;5.112;2022-09-09T15:41:45;21.10;99.90
49829;DHT22;35723;51.194;5.112;2022-09-09T15:44:11;21.00;99.90
49829;DHT22;35723;51.194;5.112;2022-09-09T15:46:42;21.00;99.90
49829;DHT22;35723;51.194;5.112;2022-09-09T15:49:12;21.00;99.90
49829;DHT22;35723;51.194;5.112;2022-09-09T15:51:43;21.10;99.90
49829;DHT22;35723;51.194;5.112;2022-09-09T15:54:11;21.10;99.90
49829;DHT22;35723;51.194;5.112;2022-09-09T15:56:41;21.00;99.90
49829;DHT22;35723;51.194;5.112;2022-09-09T15:59:09;20.90;99.90
49829;DHT22;35723;51.194;5.112;2022-09-09T16:01:35;20.90;99.90
49829;DHT22;35723;51.194;5.112;2022-09-09T16:04:01;20.60;99.90
49829;DHT22;35723;51.194;5.112;2022-09-09T16:06:28;20.70;99.90
49829;DHT22;35723;51.194;5.112;2022-09-09T16:08:55;20.70;99.90
49829;DHT22;35723;51.194;5.112;2022-09-09T16:11:27;20.80;99.90
49829;DHT22;35723;51.194;5.112;2022-09-09T16:13:54;20.90;99.90
49829;DHT22;35723;51.194;5.112;2022-09-09T16:16:23;20.80;99.90
49829;DHT22;35723;51.194;5.112;2022-09-09T16:18:56;20.10;99.90
49829;DHT22;35723;51.194;5.112;2022-09-09T16:21:25;19.90;99.90
49829;DHT22;35723;51.194;5.112;2022-09-09T16:23:52;19.80;99.90
49829;DHT22;35723;51.194;5.112;2022-09-09T16:26:21;19.50;99.90
49829;DHT22;35723;51.194;5.112;2022-09-09T16:28:47;19.50;99.90
49829;DHT22;35723;51.194;5.112;2022-09-09T16:31:19;19.50;99.90
49829;DHT22;35723;51.194;5.112;2022-09-09T16:33:45;19.30;99.90
49829;DHT22;35723;51.194;5.112;2022-09-09T16:36:14;19.50;99.90
49829;DHT22;35723;51.194;5.112;2022-09-09T16:38:41;19.30;99.90
49829;DHT22;35723;51.194;5.112;2022-09-09T16:41:09;19.40;99.90
49829;DHT22;35723;51.194;5.112;2022-09-09T16:43:36;19.40;99.90
49829;DHT22;35723;51.194;5.112;2022-09-09T16:46:14;19.40;99.90
49829;DHT22;35723;51.194;5.112;2022-09-09T16:48:41;19.50;99.90
49829;DHT22;35723;51.194;5.112;2022-09-09T16:53:40;19.40;99.90
49829;DHT22;35723;51.194;5.112;2022-09-09T16:56:10;19.60;99.90
49829;DHT22;35723;51.194;5.112;2022-09-09T16:58:36;19.50;99.90
49829;DHT22;35723;51.194;5.112;2022-09-09T17:01:02;19.40;99.90
49829;DHT22;35723;51.194;5.112;2022-09-09T17:03:29;19.40;99.90
49829;DHT22;35723;51.194;5.112;2022-09-09T17:05:55;19.60;99.90
49829;DHT22;35723;51.194;5.112;2022-09-09T17:08:23;19.80;99.90
49829;DHT22;35723;51.194;5.112;2022-09-09T17:10:49;19.60;99.90
49829;DHT22;35723;51.194;5.112;2022-09-09T17:13:15;19.60;99.90
49829;DHT22;35723;51.194;5.112;2022-09-09T17:15:43;19.50;99.90
49829;DHT22;35723;51.194;5.112;2022-09-09T17:18:11;19.40;99.90
49829;DHT22;35723;51.194;5.112;2022-09-09T17:20:38;19.10;99.90
49829;DHT22;35723;51.194;5.112;2022-09-09T17:23:08;18.80;99.90
49829;DHT22;35723;51.194;5.112;2022-09-09T17:25:34;19.00;99.90
49829;DHT22;35723;51.194;5.112;2022-09-09T17:28:00;19.20;99.90
49829;DHT22;35723;51.194;5.112;2022-09-09T17:30:37;19.20;99.90
49829;DHT22;35723;51.194;5.112;2022-09-09T17:33:04;18.90;99.90
49829;DHT22;35723;51.194;5.112;2022-09-09T17:35:30;18.80;99.90
49829;DHT22;35723;51.194;5.112;2022-09-09T17:37:56;18.60;99.90
49829;DHT22;35723;51.194;5.112;2022-09-09T17:40:22;18.50;99.90
49829;DHT22;35723;51.194;5.112;2022-09-09T17:42:48;18.50;99.90
49829;DHT22;35723;51.194;5.112;2022-09-09T17:45:14;18.60;99.90
49829;DHT22;35723;51.194;5.112;2022-09-09T17:47:40;18.60;99.90
49829;DHT22;35723;51.194;5.112;2022-09-09T17:50:08;18.60;99.90
49829;DHT22;35723;51.194;5.112;2022-09-09T17:52:35;18.30;99.90
49829;DHT22;35723;51.194;5.112;2022-09-09T17:55:03;18.50;99.90
49829;DHT22;35723;51.194;5.112;2022-09-09T17:57:29;18.70;99.90
49829;DHT22;35723;51.194;5.112;2022-09-09T17:59:54;19.00;99.90
49829;DHT22;35723;51.194;5.112;2022-09-09T18:02:20;19.10;99.90
49829;DHT22;35723;51.194;5.112;2022-09-09T18:04:46;19.30;99.90
49829;DHT22;35723;51.194;5.112;2022-09-09T18:07:11;18.80;99.90